Time;durP1;ratioP1;P1;durP2;ratioP2;P2;SDS_P1;SDS_P2;PMS_P1;PMS_P2;Temp;Humidity;BMP_temperature;BMP_pressure;BME280_temperature;BME280_humidity;BME280_pressure;Samples;Min_cycle;Max_cycle;Signal;HPM_P1;HPM_P2
2020/12/23 05:13:11;;;;;;;2.57;0.47;;;5.00;99.90;;;;;;2066826;23;20501;-86
2020/12/23 05:15:37;;;;;;;4.60;0.67;;;5.00;99.90;;;;;;4940622;29;20235;-87
2020/12/23 05:18:03;;;;;;;4.60;0.90;;;5.00;99.90;;;;;;4942653;29;20729;-86
2020/12/23 05:20:29;;;;;;;4.17;0.50;;;5.00;99.90;;;;;;4943519;29;20827;-86
2020/12/23 05:22:55;;;;;;;4.50;0.83;;;5.00;99.90;;;;;;4942650;29;20655;-85
2020/12/23 08:48:29;;;;;;;5.47;1.90;;;3.90;99.90;;;;;;5439100;23;20263;-87
2020/12/23 09:12:46;;;;;;;6.47;2.80;;;3.90;99.90;;;;;;5122128;23;20298;-90
2020/12/23 09:15:21;;;;;;;5.07;2.10;;;3.90;99.90;;;;;;5012183;28;20189;-90
2020/12/23 09:17:48;;;;;;;5.30;2.13;;;4.00;99.90;;;;;;4996321;28;20320;-91
2020/12/23 09:20:13;;;;;;;5.50;2.43;;;3.90;99.90;;;;;;5008305;28;20535;-91
2020/12/23 09:22:43;;;;;;;5.97;2.40;;;4.00;99.90;;;;;;4995623;28;20202;-89
2020/12/23 09:28:33;;;;;;;6.37;2.90;;;4.00;99.90;;;;;;5013662;28;20192;-90
2020/12/23 09:31:00;;;;;;;5.87;2.67;;;4.00;99.90;;;;;;5007246;28;20174;-89
2020/12/23 09:33:39;;;;;;;5.67;2.87;;;4.10;99.90;;;;;;4982053;28;20194;-89
2020/12/23 09:36:09;;;;;;;8.87;3.10;;;4.10;99.90;;;;;;4976059;28;20199;-89
2020/12/23 09:38:35;;;;;;;6.83;3.20;;;4.10;99.90;;;;;;4973372;28;20212;-89
2020/12/23 09:41:06;;;;;;;7.07;3.40;;;4.10;99.90;;;;;;4978619;28;20183;-89
2020/12/23 09:43:36;;;;;;;6.93;3.67;;;4.10;99.90;;;;;;4974502;28;20175;-89
2020/12/23 09:46:06;;;;;;;7.77;3.33;;;4.20;99.90;;;;;;4995349;28;20634;-89
2020/12/23 09:48:32;;;;;;;7.80;3.90;;;4.20;99.90;;;;;;4977700;28;20711;-90
2020/12/23 09:50:58;;;;;;;8.17;3.63;;;4.20;99.90;;;;;;4977857;28;20213;-89
2020/12/23 09:53:25;;;;;;;7.27;3.63;;;4.20;99.90;;;;;;4976182;28;20213;-89
2020/12/23 09:55:51;;;;;;;7.60;3.70;;;4.20;99.90;;;;;;4971499;28;20241;-89
2020/12/23 09:58:18;;;;;;;7.40;3.50;;;4.20;99.90;;;;;;4979077;28;20197;-89
2020/12/23 10:00:45;;;;;;;7.70;4.13;;;4.30;99.90;;;;;;4978223;28;20179;-89
2020/12/23 10:03:12;;;;;;;9.40;4.33;;;4.30;99.90;;;;;;4977874;28;20195;-89
2020/12/23 10:05:38;;;;;;;7.53;4.07;;;4.30;99.90;;;;;;4976090;28;20178;-89
2020/12/23 10:08:06;;;;;;;9.20;5.00;;;4.30;99.90;;;;;;4975650;28;20174;-89
2020/12/23 10:10:31;;;;;;;9.63;4.77;;;4.30;99.90;;;;;;4977873;28;20178;-89
2020/12/23 10:12:57;;;;;;;11.10;4.93;;;4.40;99.90;;;;;;4974386;28;20243;-89
2020/12/23 10:15:23;;;;;;;9.43;4.33;;;4.40;99.90;;;;;;4965880;28;20281;-89
2020/12/23 10:17:48;;;;;;;10.23;5.47;;;4.50;99.90;;;;;;4975186;28;20225;-91
2020/12/23 10:20:14;;;;;;;11.97;4.97;;;4.50;99.90;;;;;;4975861;28;20275;-90
2020/12/23 10:22:40;;;;;;;11.87;5.37;;;4.50;99.90;;;;;;4977143;28;20202;-89
2020/12/23 10:25:07;;;;;;;11.27;5.70;;;4.60;99.90;;;;;;4977251;28;20554;-89
2020/12/23 10:27:32;;;;;;;11.83;5.60;;;4.60;99.90;;;;;;4976067;28;20213;-90
2020/12/23 10:29:58;;;;;;;13.13;5.80;;;4.70;99.90;;;;;;4976085;28;20193;-90
2020/12/23 10:32:24;;;;;;;12.07;5.40;;;4.70;99.90;;;;;;4977445;28;20212;-89
2020/12/23 10:34:50;;;;;;;14.50;7.17;;;4.90;99.90;;;;;;4976210;28;20182;-90
2020/12/23 10:37:19;;;;;;;17.07;5.67;;;4.90;99.90;;;;;;4976517;28;20198;-90
2020/12/23 10:39:44;;;;;;;14.20;5.43;;;4.90;99.90;;;;;;4975638;28;20176;-90
2020/12/23 10:42:10;;;;;;;12.00;5.87;;;4.90;99.90;;;;;;4972948;28;20836;-90
2020/12/23 10:44:35;;;;;;;12.27;5.73;;;4.90;99.90;;;;;;4976399;28;20180;-91
2020/12/23 10:47:01;;;;;;;11.23;5.77;;;5.10;99.90;;;;;;4991021;28;20277;-91
2020/12/23 10:49:27;;;;;;;12.00;6.40;;;5.10;99.90;;;;;;4970908;28;20547;-90
2020/12/23 10:51:56;;;;;;;12.00;6.13;;;5.10;99.90;;;;;;4973640;28;20199;-90
2020/12/23 10:54:26;;;;;;;12.97;5.97;;;5.10;99.90;;;;;;4973516;28;20247;-90
2020/12/23 10:56:52;;;;;;;12.97;7.00;;;5.10;99.90;;;;;;4973699;28;20230;-91
2020/12/23 10:59:18;;;;;;;13.13;6.07;;;5.10;99.90;;;;;;4973745;28;20174;-91
2020/12/23 11:01:44;;;;;;;10.47;5.27;;;5.20;99.90;;;;;;4962739;28;20207;-90
2020/12/23 11:04:09;;;;;;;13.70;6.23;;;5.20;99.90;;;;;;4972634;28;20175;-90
2020/12/23 11:06:35;;;;;;;14.27;6.20;;;5.20;99.90;;;;;;4973740;28;20174;-90
2020/12/23 11:09:03;;;;;;;16.80;7.53;;;5.20;99.90;;;;;;4973574;28;20186;-90
2020/12/23 11:11:28;;;;;;;13.57;7.13;;;5.20;99.90;;;;;;4972257;28;20214;-90
2020/12/23 11:13:54;;;;;;;18.77;8.53;;;5.30;99.90;;;;;;4973796;28;20528;-90
2020/12/23 11:16:19;;;;;;;17.30;7.63;;;5.30;99.90;;;;;;4965981;28;20174;-90
2020/12/23 11:18:48;;;;;;;16.30;8.60;;;5.30;99.90;;;;;;4972180;28;20234;-89
2020/12/23 11:21:14;;;;;;;18.40;9.37;;;5.40;99.90;;;;;;4973247;28;20658;-89
2020/12/23 11:23:43;;;;;;;16.37;8.50;;;5.40;99.90;;;;;;4973465;28;20187;-91
2020/12/23 11:26:16;;;;;;;17.37;8.17;;;5.50;99.90;;;;;;4972995;28;20271;-90
2020/12/23 11:28:42;;;;;;;13.77;7.33;;;5.50;99.90;;;;;;4971442;28;20182;-90
2020/12/23 11:31:08;;;;;;;15.10;7.23;;;5.50;99.90;;;;;;4969091;28;20179;-89
2020/12/23 11:33:33;;;;;;;13.77;7.23;;;5.50;99.90;;;;;;4973683;28;20189;-89
2020/12/23 11:35:59;;;;;;;15.20;7.03;;;5.50;99.90;;;;;;4972857;28;20188;-90
2020/12/23 11:38:24;;;;;;;12.30;7.00;;;5.50;99.90;;;;;;4972870;28;20203;-90
2020/12/23 11:40:50;;;;;;;13.40;7.27;;;5.50;99.90;;;;;;4973178;28;20189;-89
2020/12/23 11:43:16;;;;;;;15.97;7.90;;;5.60;99.90;;;;;;4971084;28;20202;-90
2020/12/23 11:45:42;;;;;;;18.10;8.03;;;5.60;99.90;;;;;;4972097;28;20245;-89
2020/12/23 11:48:09;;;;;;;20.27;8.87;;;5.60;99.90;;;;;;4970580;28;20584;-90
2020/12/23 11:50:35;;;;;;;20.73;9.63;;;5.60;99.90;;;;;;4977390;28;20183;-91
2020/12/23 11:53:01;;;;;;;17.60;9.50;;;5.60;99.90;;;;;;4989361;28;20204;-90
2020/12/23 11:55:27;;;;;;;15.90;8.87;;;5.70;99.90;;;;;;4972408;28;20190;-89
2020/12/23 11:57:52;;;;;;;16.27;8.13;;;5.70;99.90;;;;;;4971170;28;20696;-91
2020/12/23 12:00:18;;;;;;;14.83;7.63;;;5.70;99.90;;;;;;4972794;28;20229;-90
2020/12/23 12:02:43;;;;;;;13.73;7.40;;;5.70;99.90;;;;;;4955816;28;20255;-89
2020/12/23 12:05:09;;;;;;;12.67;7.50;;;5.70;99.90;;;;;;4966783;28;20269;-90
2020/12/23 12:07:36;;;;;;;14.47;7.23;;;5.70;99.90;;;;;;4972142;28;20174;-90
2020/12/23 12:10:03;;;;;;;13.17;6.47;;;5.70;99.90;;;;;;4971238;28;20170;-90
2020/12/23 12:12:29;;;;;;;15.13;7.20;;;5.70;99.90;;;;;;4977135;28;20221;-90
2020/12/23 12:14:54;;;;;;;12.30;6.13;;;5.80;99.90;;;;;;4984239;28;20247;-89
2020/12/23 12:17:20;;;;;;;15.13;5.83;;;5.80;99.90;;;;;;4960139;28;20195;-89
2020/12/23 12:19:46;;;;;;;14.50;6.33;;;5.80;99.90;;;;;;4975124;28;20633;-89
2020/12/23 12:22:12;;;;;;;11.53;5.93;;;5.80;99.90;;;;;;4968435;28;20205;-90
2020/12/23 12:24:37;;;;;;;14.40;6.67;;;5.90;99.90;;;;;;4968564;28;20188;-89
2020/12/23 12:27:03;;;;;;;14.47;6.53;;;5.90;99.90;;;;;;4954073;28;20178;-90
2020/12/23 12:29:28;;;;;;;11.77;5.57;;;5.90;99.90;;;;;;4971954;28;20195;-90
2020/12/23 12:31:53;;;;;;;12.40;6.43;;;5.90;99.90;;;;;;4971912;28;20204;-90
2020/12/23 12:34:19;;;;;;;11.63;5.37;;;6.00;99.90;;;;;;4972451;28;20186;-90
2020/12/23 12:36:45;;;;;;;11.57;6.13;;;6.00;99.90;;;;;;4971248;28;20313;-90
2020/12/23 12:39:34;;;;;;;16.80;6.90;;;6.00;99.90;;;;;;4972124;28;20179;-89
2020/12/23 12:42:01;;;;;;;12.30;6.27;;;6.00;99.90;;;;;;4971274;28;20600;-90
2020/12/23 12:44:27;;;;;;;11.60;5.63;;;6.10;99.90;;;;;;4971828;28;20216;-89
2020/12/23 12:46:53;;;;;;;12.60;5.53;;;6.00;99.90;;;;;;4971702;28;20187;-91
2020/12/23 12:49:18;;;;;;;14.97;6.20;;;6.10;99.90;;;;;;4961928;28;20197;-90
2020/12/23 12:51:44;;;;;;;14.93;6.63;;;6.00;99.90;;;;;;4968066;28;20235;-89
2020/12/23 12:54:09;;;;;;;18.90;8.33;;;6.10;99.90;;;;;;4972019;28;20190;-89
2020/12/23 12:56:35;;;;;;;16.60;8.43;;;6.00;99.90;;;;;;4970903;28;20178;-90
2020/12/23 12:59:00;;;;;;;13.17;7.23;;;6.00;99.90;;;;;;4971723;28;20622;-90
2020/12/23 13:01:56;;;;;;;13.00;7.07;;;6.00;99.90;;;;;;4973418;28;20209;-90
2020/12/23 13:04:21;;;;;;;15.73;8.00;;;6.00;99.90;;;;;;4955115;28;20217;-89
2020/12/23 13:06:47;;;;;;;13.53;7.60;;;6.00;99.90;;;;;;4976127;28;20239;-90
2020/12/23 13:09:14;;;;;;;15.30;7.13;;;6.00;99.90;;;;;;4975871;28;20265;-90
2020/12/23 13:11:39;;;;;;;12.70;7.30;;;6.00;99.90;;;;;;4975312;28;20721;-89
2020/12/23 13:14:10;;;;;;;15.87;7.93;;;6.00;99.90;;;;;;4975171;28;20178;-92
2020/12/23 13:19:57;;;;;;;16.50;7.43;;;6.00;99.90;;;;;;4973537;28;20229;-91
2020/12/23 13:22:23;;;;;;;17.97;7.63;;;6.00;99.90;;;;;;4975302;28;20193;-90
2020/12/23 13:24:49;;;;;;;15.07;7.63;;;6.00;99.90;;;;;;4975318;28;20666;-90
2020/12/23 13:27:14;;;;;;;13.93;7.37;;;6.00;99.90;;;;;;4975403;28;20339;-90
2020/12/23 13:29:40;;;;;;;17.17;7.73;;;6.00;99.90;;;;;;4974624;28;20192;-90
2020/12/23 13:32:05;;;;;;;13.17;6.70;;;6.00;99.90;;;;;;4975050;28;20273;-91
2020/12/23 13:35:20;;;;;;;12.93;6.73;;;6.00;99.90;;;;;;4970920;28;20178;-89
2020/12/23 13:37:51;;;;;;;13.13;6.83;;;6.00;99.90;;;;;;4972697;28;20201;-89
2020/12/23 13:40:16;;;;;;;13.03;6.30;;;6.00;99.90;;;;;;4975184;28;20691;-90
2020/12/23 13:42:42;;;;;;;13.13;6.87;;;6.00;99.90;;;;;;4976217;28;20198;-90
2020/12/23 13:45:07;;;;;;;13.67;6.50;;;6.00;99.90;;;;;;4976090;28;20174;-89
2020/12/23 13:47:33;;;;;;;14.50;6.27;;;6.10;99.90;;;;;;4971366;28;20672;-89
2020/12/23 13:49:59;;;;;;;14.37;6.70;;;6.10;99.90;;;;;;4967970;28;20175;-90
2020/12/23 13:52:46;;;;;;;13.97;6.13;;;6.10;99.90;;;;;;4974784;28;20204;-90
2020/12/23 13:55:12;;;;;;;12.47;6.40;;;6.10;99.90;;;;;;4974561;28;20201;-91
2020/12/23 13:57:37;;;;;;;11.83;6.20;;;6.10;99.90;;;;;;4974014;28;20281;-89
2020/12/23 14:00:05;;;;;;;12.90;6.70;;;6.10;99.90;;;;;;4968935;28;20171;-90
2020/12/23 14:02:31;;;;;;;14.33;7.07;;;6.10;99.90;;;;;;4955602;28;20195;-90
2020/12/23 14:04:56;;;;;;;13.80;6.77;;;6.10;99.90;;;;;;4974188;28;20537;-90
2020/12/23 14:07:22;;;;;;;14.53;7.67;;;6.10;99.90;;;;;;4970567;28;20673;-90
2020/12/23 14:09:47;;;;;;;11.60;6.27;;;6.00;99.90;;;;;;4964926;28;20210;-90
2020/12/23 14:12:13;;;;;;;12.87;6.37;;;6.00;99.90;;;;;;4973842;28;20716;-90
2020/12/23 14:14:38;;;;;;;12.93;6.60;;;6.10;99.90;;;;;;4975244;28;20193;-92
2020/12/23 14:17:04;;;;;;;12.90;7.07;;;6.10;99.90;;;;;;4974248;28;20205;-90
2020/12/23 14:19:30;;;;;;;13.80;7.47;;;6.10;99.90;;;;;;4974127;28;20261;-90
2020/12/23 14:21:55;;;;;;;13.67;7.20;;;6.10;99.90;;;;;;4971764;28;20700;-91
2020/12/23 14:24:21;;;;;;;13.07;7.23;;;6.10;99.90;;;;;;4964835;28;20180;-91
2020/12/23 14:26:46;;;;;;;14.90;7.97;;;6.10;99.90;;;;;;4972554;28;20218;-90
2020/12/23 14:29:14;;;;;;;15.30;7.53;;;6.10;99.90;;;;;;4973205;28;20766;-90
2020/12/23 15:08:03;;;;;;;13.50;6.33;;;5.80;99.90;;;;;;5945978;23;20212;-85
2020/12/23 15:26:41;;;;;;;10.73;5.73;;;5.60;99.90;;;;;;4953238;28;20243;-87
2020/12/23 15:29:06;;;;;;;12.90;6.63;;;5.60;99.90;;;;;;4954140;29;20654;-88
2020/12/23 15:31:32;;;;;;;11.73;6.10;;;5.60;99.90;;;;;;4954316;29;20181;-87
2020/12/23 15:33:58;;;;;;;11.23;6.23;;;5.60;99.90;;;;;;4939338;28;20210;-87
2020/12/23 15:36:23;;;;;;;11.57;6.27;;;5.50;99.90;;;;;;4934916;29;20219;-87
2020/12/23 15:38:49;;;;;;;12.57;6.50;;;5.50;99.90;;;;;;4934252;29;20269;-88
2020/12/23 15:41:14;;;;;;;17.73;8.67;;;5.50;99.90;;;;;;4935381;29;20193;-88
2020/12/23 15:43:41;;;;;;;16.73;9.30;;;5.50;99.90;;;;;;4937796;29;20253;-88
2020/12/23 15:46:11;;;;;;;16.37;8.67;;;5.50;99.90;;;;;;4935383;29;20899;-88
2020/12/23 15:48:37;;;;;;;14.90;6.77;;;5.10;99.90;;;;;;4922472;29;20183;-87
2020/12/23 15:51:07;;;;;;;12.93;7.43;;;5.00;99.90;;;;;;4938706;29;20190;-88
2020/12/23 15:53:33;;;;;;;13.67;7.57;;;5.10;99.90;;;;;;4935121;29;20558;-88
2020/12/23 15:56:01;;;;;;;15.13;7.00;;;5.20;99.90;;;;;;4935043;29;20197;-88
2020/12/23 15:58:28;;;;;;;14.80;7.47;;;5.20;99.90;;;;;;4933268;29;20197;-87
2020/12/23 16:00:53;;;;;;;15.57;8.43;;;5.30;99.90;;;;;;4951026;28;20188;-88
2020/12/23 16:03:18;;;;;;;16.17;9.20;;;5.30;99.90;;;;;;4931005;29;20196;-88
2020/12/23 16:05:44;;;;;;;23.40;12.00;;;5.30;99.90;;;;;;4938957;29;20202;-87
2020/12/23 16:08:21;;;;;;;22.80;12.33;;;5.30;99.90;;;;;;4933477;29;20213;-87
2020/12/23 16:10:46;;;;;;;21.23;11.17;;;5.20;99.90;;;;;;4936807;29;20195;-89
2020/12/23 16:13:12;;;;;;;18.00;9.73;;;5.20;99.90;;;;;;4932132;29;20211;-88
2020/12/23 16:15:37;;;;;;;16.63;9.53;;;5.20;99.90;;;;;;4936290;29;20723;-88
2020/12/23 16:18:03;;;;;;;19.93;9.17;;;5.20;99.90;;;;;;4936037;29;20206;-87
2020/12/23 16:20:29;;;;;;;18.97;9.43;;;5.10;99.90;;;;;;4934665;29;20184;-88
2020/12/23 16:22:54;;;;;;;15.77;8.80;;;5.10;99.90;;;;;;4934709;29;20295;-88
2020/12/23 16:25:20;;;;;;;16.63;9.03;;;5.20;99.90;;;;;;4935409;29;20191;-88
2020/12/23 16:27:45;;;;;;;19.70;9.83;;;5.10;99.90;;;;;;4933954;29;20189;-87
2020/12/23 16:30:11;;;;;;;23.40;12.33;;;5.20;99.90;;;;;;4935318;29;20649;-88
2020/12/23 16:32:37;;;;;;;18.30;10.23;;;5.20;99.90;;;;;;4934046;29;20260;-88
2020/12/23 16:35:06;;;;;;;17.30;9.33;;;5.20;99.90;;;;;;4936483;29;20180;-88
2020/12/23 16:37:35;;;;;;;19.70;10.37;;;5.30;99.90;;;;;;4934764;29;20207;-88
2020/12/23 16:40:03;;;;;;;17.80;9.53;;;5.30;99.90;;;;;;4937885;29;20668;-88
2020/12/23 16:42:28;;;;;;;18.90;9.33;;;5.30;99.90;;;;;;4938465;29;20552;-87
2020/12/23 16:45:05;;;;;;;18.90;8.63;;;5.30;99.90;;;;;;4938471;29;20247;-87
2020/12/23 16:47:31;;;;;;;14.83;8.77;;;5.30;99.90;;;;;;4943662;29;20194;-88
2020/12/23 16:49:57;;;;;;;19.87;8.87;;;5.30;99.90;;;;;;4938172;29;20189;-87
2020/12/23 16:52:23;;;;;;;20.20;9.33;;;5.30;99.90;;;;;;4938045;29;20205;-87
2020/12/23 16:54:49;;;;;;;20.00;9.40;;;5.40;99.90;;;;;;4939880;29;20534;-88
2020/12/23 16:57:17;;;;;;;17.23;8.90;;;5.30;99.90;;;;;;4938524;29;20878;-88
2020/12/23 16:59:43;;;;;;;18.47;8.70;;;5.30;99.90;;;;;;4938378;29;20656;-89
2020/12/23 17:02:09;;;;;;;21.03;9.57;;;5.40;99.90;;;;;;4938396;29;20203;-88
2020/12/23 17:04:38;;;;;;;20.87;9.53;;;5.40;99.90;;;;;;4937964;29;20183;-88
2020/12/23 17:07:04;;;;;;;14.00;8.17;;;5.40;99.90;;;;;;4939077;29;20714;-88
2020/12/23 17:09:29;;;;;;;17.90;7.97;;;5.40;99.90;;;;;;4938124;29;20220;-88
2020/12/23 17:12:00;;;;;;;17.90;8.77;;;5.40;99.90;;;;;;4940129;29;20187;-88
2020/12/23 17:14:46;;;;;;;15.13;8.40;;;5.50;99.90;;;;;;4937418;29;20179;-88
2020/12/23 17:17:11;;;;;;;19.13;8.90;;;5.50;99.90;;;;;;4933209;29;20225;-88
2020/12/23 17:19:39;;;;;;;18.83;8.63;;;5.50;99.90;;;;;;4943534;29;20544;-88
2020/12/23 17:22:07;;;;;;;19.40;9.20;;;5.50;99.90;;;;;;4941569;28;20748;-88
2020/12/23 17:24:32;;;;;;;19.93;9.37;;;5.50;99.90;;;;;;4937896;29;20179;-88
2020/12/23 17:26:58;;;;;;;14.77;8.37;;;5.50;99.90;;;;;;4943653;29;20267;-88
2020/12/23 17:29:24;;;;;;;17.90;9.40;;;5.50;99.90;;;;;;4953689;28;20185;-88
2020/12/23 17:31:50;;;;;;;19.43;8.93;;;5.50;99.90;;;;;;4936582;29;20191;-89
2020/12/23 17:34:16;;;;;;;18.07;8.33;;;5.50;99.90;;;;;;4937166;29;20189;-88
2020/12/23 17:36:42;;;;;;;20.97;9.17;;;5.50;99.90;;;;;;4939042;29;20217;-87
2020/12/23 17:39:10;;;;;;;22.30;9.17;;;5.50;99.90;;;;;;4939037;29;20407;-88
2020/12/23 17:41:38;;;;;;;20.17;8.73;;;5.50;99.90;;;;;;4939292;29;20180;-88
2020/12/23 17:44:05;;;;;;;17.90;8.77;;;5.50;99.90;;;;;;4943640;29;20213;-89
2020/12/23 17:46:33;;;;;;;18.93;8.50;;;5.60;99.90;;;;;;4937419;29;20534;-88
2020/12/23 17:48:59;;;;;;;17.27;8.80;;;5.60;99.90;;;;;;4935439;29;20193;-88
2020/12/23 17:51:26;;;;;;;18.40;9.27;;;5.60;99.90;;;;;;4937547;29;20186;-88
2020/12/23 17:53:56;;;;;;;15.70;8.37;;;5.50;99.90;;;;;;4937009;29;20199;-88
2020/12/23 17:56:22;;;;;;;20.50;9.77;;;5.50;99.90;;;;;;4931506;29;20435;-88
2020/12/23 17:58:55;;;;;;;20.77;8.90;;;5.50;99.90;;;;;;4938567;29;20197;-90
2020/12/23 18:01:31;;;;;;;17.07;8.27;;;5.60;99.90;;;;;;4940923;29;20175;-88
2020/12/23 18:03:58;;;;;;;18.10;7.77;;;5.50;99.90;;;;;;4953975;29;20212;-86
2020/12/23 18:06:25;;;;;;;17.53;8.33;;;5.50;99.90;;;;;;4939163;29;20209;-86
2020/12/23 18:08:51;;;;;;;18.23;7.50;;;5.50;99.90;;;;;;4935749;29;20193;-88
2020/12/23 18:11:18;;;;;;;15.93;8.37;;;5.50;99.90;;;;;;4936820;29;20189;-87
2020/12/23 18:13:44;;;;;;;26.40;10.43;;;5.60;99.90;;;;;;4938627;29;20236;-86
2020/12/23 18:16:11;;;;;;;15.90;8.03;;;5.50;99.90;;;;;;4937284;29;20304;-86
2020/12/23 18:18:36;;;;;;;18.73;7.70;;;5.50;99.90;;;;;;4938802;29;20290;-87
2020/12/23 18:21:03;;;;;;;14.90;6.97;;;5.50;99.90;;;;;;4936177;29;20253;-87
2020/12/23 18:23:28;;;;;;;12.93;6.57;;;5.50;99.90;;;;;;4937571;29;20238;-86
2020/12/23 18:25:54;;;;;;;15.77;7.50;;;5.60;99.90;;;;;;4938587;29;20740;-86
2020/12/23 18:28:20;;;;;;;15.93;7.50;;;5.50;99.90;;;;;;4936788;29;20225;-87
2020/12/23 18:30:45;;;;;;;15.13;6.90;;;5.50;99.90;;;;;;4936277;29;20193;-87
2020/12/23 18:33:11;;;;;;;16.33;7.87;;;5.50;99.90;;;;;;4937558;29;20215;-87
2020/12/23 18:35:38;;;;;;;16.93;7.97;;;5.60;99.90;;;;;;4939682;29;20219;-87
2020/12/23 18:38:03;;;;;;;12.40;6.10;;;5.60;99.90;;;;;;4937511;29;20840;-87
2020/12/23 18:40:29;;;;;;;17.00;7.73;;;5.60;99.90;;;;;;4936650;29;20184;-87
2020/12/23 18:42:54;;;;;;;13.87;6.83;;;5.50;99.90;;;;;;4937199;29;20251;-87
2020/12/23 18:45:20;;;;;;;17.07;8.37;;;5.60;99.90;;;;;;4936841;29;20233;-87
2020/12/23 18:47:50;;;;;;;17.83;8.67;;;5.60;99.90;;;;;;4938945;29;20193;-87
2020/12/23 18:50:17;;;;;;;17.07;8.37;;;5.60;99.90;;;;;;4937227;29;20192;-87
2020/12/23 18:52:50;;;;;;;17.17;8.93;;;5.60;99.90;;;;;;4938556;29;20203;-86
2020/12/23 18:55:16;;;;;;;17.97;9.00;;;5.60;99.90;;;;;;4937245;29;20196;-88
2020/12/23 18:57:45;;;;;;;14.53;8.10;;;5.60;99.90;;;;;;4936201;29;20270;-87
2020/12/23 19:00:14;;;;;;;18.30;7.57;;;5.60;99.90;;;;;;4936500;29;20721;-86
2020/12/23 19:02:40;;;;;;;15.47;7.13;;;5.50;99.90;;;;;;4936725;29;20638;-86
2020/12/23 19:05:05;;;;;;;13.43;5.53;;;5.50;99.90;;;;;;4943255;29;20203;-87
2020/12/23 19:07:32;;;;;;;16.67;5.73;;;5.50;99.90;;;;;;4938282;29;20179;-87
2020/12/23 19:10:04;;;;;;;17.03;6.80;;;5.50;99.90;;;;;;4935005;29;20186;-87
2020/12/23 19:12:29;;;;;;;15.50;6.10;;;5.40;99.90;;;;;;4935806;29;20210;-87
2020/12/23 19:14:55;;;;;;;17.93;7.53;;;5.40;99.90;;;;;;4937546;29;20559;-87
2020/12/23 19:17:20;;;;;;;14.97;7.43;;;5.30;99.90;;;;;;4938802;29;20205;-87
2020/12/23 19:19:46;;;;;;;16.37;6.87;;;5.40;99.90;;;;;;4937534;29;20695;-87
2020/12/23 19:22:12;;;;;;;16.87;7.17;;;5.40;99.90;;;;;;4937398;29;20203;-87
2020/12/23 19:24:38;;;;;;;14.30;6.43;;;5.40;99.90;;;;;;4938766;29;20272;-87
2020/12/23 19:27:04;;;;;;;14.50;5.70;;;5.50;99.90;;;;;;4937550;29;20190;-87
2020/12/23 19:29:29;;;;;;;18.57;6.33;;;5.50;99.90;;;;;;4936983;29;20557;-87
2020/12/23 19:31:55;;;;;;;17.90;7.17;;;5.50;99.90;;;;;;4936574;29;20280;-86
2020/12/23 19:34:20;;;;;;;14.83;7.00;;;5.60;99.90;;;;;;4937611;29;20189;-88
2020/12/23 19:36:47;;;;;;;14.70;5.90;;;5.40;99.90;;;;;;4936722;29;20190;-87
2020/12/23 19:39:12;;;;;;;14.00;6.10;;;5.40;99.90;;;;;;4935603;29;20649;-87
2020/12/23 19:41:38;;;;;;;15.63;6.00;;;5.40;99.90;;;;;;4936114;29;20259;-86
2020/12/23 19:44:03;;;;;;;14.90;6.07;;;5.40;99.90;;;;;;4939124;29;20218;-86
2020/12/23 19:46:29;;;;;;;18.63;6.60;;;5.40;99.90;;;;;;4936221;29;20213;-87
2020/12/23 19:48:54;;;;;;;15.33;6.17;;;5.40;99.90;;;;;;4935961;29;20674;-87
2020/12/23 19:51:20;;;;;;;16.70;6.30;;;5.40;99.90;;;;;;4928108;29;20193;-86
2020/12/23 19:53:45;;;;;;;21.20;7.93;;;5.40;99.90;;;;;;4936674;29;20211;-87
2020/12/23 19:56:15;;;;;;;19.23;7.20;;;5.40;99.90;;;;;;4942395;29;20190;-87
2020/12/23 19:58:43;;;;;;;15.37;6.00;;;5.40;99.90;;;;;;4936423;29;20205;-86
2020/12/23 20:01:09;;;;;;;14.77;5.70;;;5.40;99.90;;;;;;4935908;29;20239;-87
2020/12/23 20:03:34;;;;;;;13.90;5.00;;;5.30;99.90;;;;;;4936636;29;20208;-87
2020/12/23 20:06:00;;;;;;;14.93;6.33;;;5.30;99.90;;;;;;4931104;29;20665;-86
2020/12/23 20:08:28;;;;;;;11.63;5.13;;;5.40;99.90;;;;;;4936505;29;20286;-86
2020/12/23 20:10:54;;;;;;;12.47;5.77;;;5.40;99.90;;;;;;4948981;29;20178;-87
2020/12/23 20:13:19;;;;;;;12.37;5.97;;;5.30;99.90;;;;;;4941738;28;20209;-86
2020/12/23 20:15:45;;;;;;;13.47;5.00;;;5.30;99.90;;;;;;4936844;29;20192;-87
2020/12/23 20:18:10;;;;;;;11.07;5.27;;;5.40;99.90;;;;;;4933971;29;20216;-86
2020/12/23 20:20:36;;;;;;;11.47;4.73;;;5.40;99.90;;;;;;4933270;29;20201;-88
2020/12/23 20:23:01;;;;;;;10.77;4.40;;;5.40;99.90;;;;;;4943147;28;20588;-87
2020/12/23 20:25:27;;;;;;;13.80;5.53;;;5.40;99.90;;;;;;4936467;29;20199;-87
2020/12/23 20:27:52;;;;;;;11.03;4.57;;;5.40;99.90;;;;;;4938673;29;20187;-87
2020/12/23 20:30:24;;;;;;;15.73;5.90;;;5.40;99.90;;;;;;4936476;29;20641;-86
2020/12/23 20:35:19;;;;;;;11.33;5.37;;;5.40;99.90;;;;;;4952375;29;20234;-90
2020/12/23 20:37:44;;;;;;;14.07;5.43;;;5.40;99.90;;;;;;4952044;29;20211;-92
2020/12/23 20:40:10;;;;;;;12.70;5.00;;;5.40;99.90;;;;;;4952075;29;20799;-91
2020/12/23 20:42:37;;;;;;;13.20;5.30;;;5.40;99.90;;;;;;4950083;28;20242;-91
2020/12/23 20:45:03;;;;;;;15.13;5.03;;;5.40;99.90;;;;;;4933130;29;20186;-90
2020/12/23 20:47:29;;;;;;;17.07;6.07;;;5.40;99.90;;;;;;4937108;29;20264;-91
2020/12/23 20:49:56;;;;;;;13.20;5.77;;;5.40;99.90;;;;;;4943854;28;20281;-90
2020/12/23 20:52:23;;;;;;;16.00;5.63;;;5.40;99.90;;;;;;4946210;29;20190;-91
2020/12/23 20:54:48;;;;;;;13.87;5.47;;;5.40;99.90;;;;;;4930823;29;20647;-90
2020/12/23 20:57:14;;;;;;;16.43;6.60;;;5.40;99.90;;;;;;4928213;29;20237;-90
2020/12/23 20:59:39;;;;;;;14.63;5.87;;;5.40;99.90;;;;;;4931705;29;20184;-90
2020/12/23 21:02:05;;;;;;;17.17;6.43;;;5.20;99.90;;;;;;4929457;29;20267;-92
2020/12/23 21:04:30;;;;;;;23.13;7.90;;;5.20;99.90;;;;;;4940602;29;20202;-91
2020/12/23 21:06:56;;;;;;;15.50;6.97;;;5.10;99.90;;;;;;4937691;29;20671;-90
2020/12/23 21:09:22;;;;;;;19.23;8.40;;;5.20;99.90;;;;;;4942032;29;20200;-91
2020/12/23 21:11:48;;;;;;;20.60;7.90;;;5.20;99.90;;;;;;4939310;29;20274;-90
2020/12/23 21:14:15;;;;;;;22.40;9.30;;;5.30;99.90;;;;;;4943248;28;20204;-91
2020/12/23 21:16:49;;;;;;;18.07;8.67;;;5.30;99.90;;;;;;4929439;29;20186;-91
2020/12/23 21:19:15;;;;;;;17.50;9.07;;;5.40;99.90;;;;;;4928779;29;20558;-91
2020/12/23 21:21:40;;;;;;;21.57;8.80;;;5.40;99.90;;;;;;4923764;29;20195;-90
2020/12/23 21:24:06;;;;;;;22.00;9.07;;;5.40;99.90;;;;;;4932217;29;20670;-92
2020/12/23 21:26:33;;;;;;;20.27;8.63;;;5.40;99.90;;;;;;4934834;29;20186;-90
2020/12/23 21:28:58;;;;;;;17.17;8.00;;;5.40;99.90;;;;;;4933796;29;20639;-91
2020/12/23 21:31:25;;;;;;;17.90;7.37;;;5.40;99.90;;;;;;4935729;29;20207;-92
2020/12/23 21:33:51;;;;;;;16.80;7.40;;;5.40;99.90;;;;;;4933880;29;20227;-91
2020/12/23 21:36:17;;;;;;;17.83;8.13;;;5.50;99.90;;;;;;4933859;29;20262;-91
2020/12/23 21:38:43;;;;;;;15.43;7.00;;;5.50;99.90;;;;;;4934810;29;20716;-91
2020/12/23 21:41:09;;;;;;;16.07;7.47;;;5.50;99.90;;;;;;4931591;29;20184;-93
2020/12/23 21:43:34;;;;;;;18.70;8.83;;;5.50;99.90;;;;;;4935319;29;20257;-92
2020/12/23 21:46:01;;;;;;;17.20;7.03;;;5.50;99.90;;;;;;4934443;29;20565;-90
2020/12/23 21:48:27;;;;;;;17.83;7.57;;;5.40;99.90;;;;;;4935224;29;20608;-91
2020/12/23 21:50:53;;;;;;;19.00;7.80;;;5.40;99.90;;;;;;4934309;29;20194;-92
2020/12/23 21:53:18;;;;;;;16.40;8.10;;;5.50;99.90;;;;;;4932176;29;20220;-90
2020/12/23 21:55:44;;;;;;;18.17;7.63;;;5.40;99.90;;;;;;4938567;28;20180;-90
2020/12/23 21:58:09;;;;;;;15.10;7.10;;;5.50;99.90;;;;;;4932943;29;20224;-91
2020/12/23 22:00:35;;;;;;;17.47;7.43;;;5.40;99.90;;;;;;4932942;29;20182;-92
2020/12/23 22:03:00;;;;;;;16.00;7.03;;;5.40;99.90;;;;;;4935302;29;20211;-90
2020/12/23 22:05:26;;;;;;;17.47;6.97;;;5.40;99.90;;;;;;4933922;29;20184;-91
2020/12/23 22:07:51;;;;;;;13.37;6.93;;;5.40;99.90;;;;;;4936480;29;20193;-90
2020/12/23 22:10:17;;;;;;;17.20;7.53;;;5.30;99.90;;;;;;4934586;29;20198;-92
2020/12/23 22:12:42;;;;;;;16.93;7.10;;;5.20;99.90;;;;;;4933962;29;20225;-90
2020/12/23 22:15:08;;;;;;;13.97;6.60;;;5.20;99.90;;;;;;4933856;29;20563;-91
2020/12/23 22:17:34;;;;;;;18.37;7.83;;;5.20;99.90;;;;;;4933482;29;20288;-91
2020/12/23 22:20:00;;;;;;;15.97;6.70;;;5.20;99.90;;;;;;4936728;29;20231;-91
2020/12/23 22:22:26;;;;;;;14.60;6.57;;;5.20;99.90;;;;;;4933286;29;20675;-91
2020/12/23 22:24:51;;;;;;;14.37;7.33;;;5.30;99.90;;;;;;4934171;29;20259;-90
2020/12/23 22:27:17;;;;;;;14.87;6.57;;;5.30;99.90;;;;;;4935497;29;20424;-91
2020/12/23 22:29:42;;;;;;;14.43;6.50;;;5.30;99.90;;;;;;4935231;29;20562;-91
2020/12/23 22:32:08;;;;;;;15.43;6.53;;;5.30;99.90;;;;;;4935967;29;20184;-91
2020/12/23 22:34:33;;;;;;;14.47;6.57;;;5.40;99.90;;;;;;4933923;29;20250;-89
2020/12/23 22:36:59;;;;;;;16.23;6.63;;;5.40;99.90;;;;;;4935253;29;20191;-89
2020/12/23 22:39:25;;;;;;;16.83;7.07;;;5.40;99.90;;;;;;4931927;29;20223;-90
2020/12/23 22:41:56;;;;;;;18.03;8.07;;;5.30;99.90;;;;;;4925578;29;20185;-90
2020/12/23 22:44:21;;;;;;;16.73;7.80;;;5.30;99.90;;;;;;4951786;28;20254;-90